createdAt,value
2023-01-04T00:05:03.036Z,2.88
2023-01-04T00:10:06.547Z,3.00
2023-01-04T00:15:10.727Z,3.20
2023-01-04T00:20:14.795Z,2.97
2023-01-04T00:25:17.867Z,2.77
2023-01-04T00:30:20.658Z,2.63
2023-01-04T00:35:44.533Z,2.80
2023-01-04T00:40:47.563Z,3.50
2023-01-04T00:45:50.416Z,2.70
2023-01-04T00:50:54.635Z,3.00
2023-01-04T00:56:01.454Z,2.80
2023-01-04T01:01:06.478Z,3.03
2023-01-04T01:06:10.865Z,2.90
2023-01-04T01:11:13.666Z,3.13
2023-01-04T01:16:37.846Z,2.90
2023-01-04T01:21:43.307Z,2.80
2023-01-04T01:26:46.165Z,3.00
2023-01-04T01:31:48.973Z,2.60
2023-01-04T01:36:53.210Z,2.80
2023-01-04T01:41:56.022Z,2.87
2023-01-04T01:46:58.763Z,2.50
2023-01-04T01:52:05.278Z,2.77
2023-01-04T01:57:09.901Z,2.72
2023-01-04T02:02:13.256Z,2.97
2023-01-04T02:07:21.395Z,2.80
2023-01-04T02:12:24.206Z,2.73
2023-01-04T02:17:35.598Z,3.03
2023-01-04T02:23:05.430Z,2.70
2023-01-04T02:28:11.116Z,2.80
2023-01-04T02:33:25.592Z,2.43
2023-01-04T02:38:32.065Z,2.90
2023-01-04T02:43:55.018Z,2.50
2023-01-04T02:49:19.663Z,2.43
2023-01-04T02:54:25.157Z,2.63
2023-01-04T03:00:05.229Z,2.70
2023-01-04T03:05:33.812Z,2.50
2023-01-04T03:10:40.101Z,3.00
2023-01-04T03:15:44.217Z,2.90
2023-01-04T03:20:49.586Z,2.90
2023-01-04T03:26:14.785Z,2.90
2023-01-04T03:31:45.032Z,2.80
2023-01-04T03:36:56.707Z,2.75
2023-01-04T03:42:19.354Z,2.63
2023-01-04T03:47:46.152Z,2.80
2023-01-04T03:52:51.228Z,2.67
2023-01-04T03:57:54.340Z,2.90
2023-01-04T04:03:07.035Z,2.47
2023-01-04T04:08:27.606Z,2.70
2023-01-04T04:13:30.296Z,2.83
2023-01-04T04:18:33.093Z,2.77
2023-01-04T04:23:37.214Z,2.42
2023-01-04T04:28:40.345Z,2.63
2023-01-04T04:33:43.093Z,2.70
2023-01-04T04:38:47.192Z,2.73
2023-01-04T04:43:50.113Z,2.20
2023-01-04T04:48:52.872Z,2.50
2023-01-04T04:53:56.967Z,2.10
2023-01-04T04:58:59.671Z,2.30
2023-01-04T05:04:02.380Z,2.33
2023-01-04T05:09:06.440Z,2.30
2023-01-04T05:14:09.623Z,2.37
2023-01-04T05:19:12.468Z,2.33
2023-01-04T05:24:16.680Z,2.27
2023-01-04T05:29:33.324Z,2.30
2023-01-04T05:34:36.210Z,2.05
2023-01-04T05:39:40.458Z,2.23
2023-01-04T05:44:43.307Z,2.83
2023-01-04T05:49:46.088Z,2.70
2023-01-04T05:54:50.180Z,2.77
2023-01-04T05:59:52.986Z,3.30
2023-01-04T06:04:59.181Z,3.63
2023-01-04T06:10:03.949Z,3.65
2023-01-04T06:15:07.865Z,3.42
2023-01-04T06:20:11.850Z,3.50
2023-01-04T06:25:16.206Z,3.70
2023-01-04T06:30:18.946Z,3.80
2023-01-04T06:35:21.651Z,3.75
2023-01-04T06:40:25.853Z,3.55
2023-01-04T06:45:28.549Z,3.42
2023-01-04T06:50:31.250Z,3.83
2023-01-04T06:55:35.359Z,3.72
2023-01-04T07:00:38.206Z,3.45
2023-01-04T07:05:40.922Z,3.63
2023-01-04T07:10:45.170Z,3.53
2023-01-04T07:15:47.979Z,3.95
2023-01-04T07:20:50.745Z,3.92
2023-01-04T07:25:55.387Z,3.70
2023-01-04T07:30:58.111Z,3.85
2023-01-04T07:36:05.953Z,3.45
2023-01-04T07:41:10.352Z,4.03
2023-01-04T07:46:13.115Z,4.00
2023-01-04T07:51:15.953Z,3.60
2023-01-04T07:56:20.278Z,3.15
2023-01-04T08:01:23.094Z,3.20
2023-01-04T08:06:25.899Z,3.27
2023-01-04T08:11:30.157Z,2.93
2023-01-04T08:16:34.395Z,2.27
2023-01-04T08:21:37.307Z,2.27
2023-01-04T08:26:41.660Z,1.97
2023-01-04T08:31:44.471Z,2.73
2023-01-04T08:36:48.840Z,2.23
2023-01-04T08:42:07.852Z,2.20
2023-01-04T08:47:13.832Z,1.98
2023-01-04T08:52:16.610Z,1.75
2023-01-04T08:57:20.821Z,1.47
2023-01-04T09:02:25.722Z,1.90
2023-01-04T09:07:29.763Z,1.40
2023-01-04T09:12:33.852Z,1.25
2023-01-04T09:17:46.498Z,1.70
2023-01-04T09:22:59.633Z,1.80
2023-01-04T09:28:03.762Z,1.13
2023-01-04T09:33:06.499Z,1.00
2023-01-04T09:38:09.403Z,1.30
2023-01-04T09:43:19.986Z,1.00
2023-01-04T09:48:28.223Z,0.97
2023-01-04T09:53:33.316Z,0.80
2023-01-04T09:58:40.859Z,0.80
2023-01-04T10:03:47.810Z,0.57
2023-01-04T10:08:50.586Z,0.75
2023-01-04T10:14:03.645Z,0.80
2023-01-04T10:19:36.685Z,0.80
2023-01-04T10:24:46.522Z,1.20
2023-01-04T10:30:07.698Z,0.80
2023-01-04T10:35:21.684Z,0.57
2023-01-04T10:40:24.883Z,0.93
2023-01-04T10:45:33.900Z,0.85
2023-01-04T10:50:40.449Z,1.08
2023-01-04T10:56:24.564Z,0.65
2023-01-04T11:01:13.677Z,0.70
2023-01-04T11:06:21.199Z,0.60
2023-01-04T11:11:26.531Z,0.70
2023-01-04T11:16:31.226Z,1.00
2023-01-04T11:21:38.247Z,1.00
2023-01-04T11:26:43.785Z,1.00
2023-01-04T11:31:52.236Z,0.95
2023-01-04T11:36:55.012Z,1.10
2023-01-04T11:42:02.934Z,0.95
2023-01-04T11:47:19.244Z,0.90
2023-01-04T11:52:32.840Z,0.83
2023-01-04T11:57:35.869Z,1.00
2023-01-04T12:03:00.751Z,1.00
2023-01-04T12:08:02.770Z,1.02
2023-01-04T12:13:10.253Z,0.80
2023-01-04T12:18:18.025Z,0.90
2023-01-04T12:23:21.332Z,1.00
2023-01-04T12:28:32.491Z,0.80
2023-01-04T12:33:40.611Z,0.80
2023-01-04T12:39:01.629Z,0.60
2023-01-04T12:44:43.409Z,0.70
2023-01-04T12:49:53.318Z,0.55
2023-01-04T12:54:58.544Z,0.63
2023-01-04T13:00:03.235Z,0.63
2023-01-04T13:05:55.539Z,0.57
2023-01-04T13:10:57.423Z,0.60
2023-01-04T13:16:10.816Z,0.50
2023-01-04T13:21:17.054Z,0.60
2023-01-04T13:26:32.654Z,0.52
2023-01-04T13:31:41.758Z,0.57
2023-01-04T13:36:54.410Z,0.50
2023-01-04T13:41:57.646Z,0.80
2023-01-04T13:47:00.807Z,0.50
2023-01-04T13:52:46.643Z,0.70
2023-01-04T13:57:53.972Z,0.50
2023-01-04T14:03:08.025Z,0.70
2023-01-04T14:08:12.713Z,0.55
2023-01-04T14:13:17.440Z,0.57
2023-01-04T14:18:28.495Z,0.60
2023-01-04T14:23:35.416Z,0.63
2023-01-04T14:28:49.532Z,0.60
2023-01-04T14:33:53.778Z,1.45
2023-01-04T14:39:11.058Z,0.40
2023-01-04T14:44:16.025Z,0.50
2023-01-04T14:49:19.806Z,0.70
2023-01-04T14:54:25.702Z,0.50
2023-01-04T14:59:28.659Z,0.60
2023-01-04T15:04:31.471Z,0.50
2023-01-04T15:09:36.930Z,0.35
2023-01-04T15:14:39.746Z,0.40
2023-01-04T15:19:42.478Z,0.38
2023-01-04T15:24:46.569Z,0.40
2023-01-04T15:29:49.420Z,0.60
2023-01-04T15:34:52.725Z,0.50
2023-01-04T15:40:02.349Z,0.50
2023-01-04T15:45:07.497Z,0.50
2023-01-04T15:50:10.537Z,0.50
2023-01-04T15:55:15.437Z,0.50
2023-01-04T16:00:18.729Z,0.50
2023-01-04T16:05:21.714Z,0.50
2023-01-04T16:10:29.215Z,0.60
2023-01-04T16:15:31.889Z,0.40
2023-01-04T16:20:34.629Z,0.68
2023-01-04T16:25:38.713Z,0.52
2023-01-04T16:30:41.417Z,0.40
2023-01-04T16:35:44.116Z,0.40
2023-01-04T16:40:57.669Z,0.40
2023-01-04T16:46:17.436Z,0.30
2023-01-04T16:51:20.760Z,0.30
2023-01-04T16:56:25.701Z,0.52
2023-01-04T17:01:30.698Z,0.50
2023-01-04T17:06:34.515Z,0.30
2023-01-04T17:12:19.122Z,0.40
2023-01-04T17:17:03.424Z,0.30
2023-01-04T17:22:06.326Z,0.70
2023-01-04T17:27:10.753Z,0.40
2023-01-04T17:32:13.486Z,0.40
2023-01-04T17:37:16.224Z,0.40
2023-01-04T17:42:20.280Z,0.40
2023-01-04T17:47:23.224Z,0.50
2023-01-04T17:52:30.686Z,0.30
2023-01-04T17:57:35.677Z,0.30
2023-01-04T18:02:38.519Z,0.30
2023-01-04T18:07:41.379Z,0.30
2023-01-04T18:12:45.571Z,0.50
2023-01-04T18:17:48.276Z,0.20
2023-01-04T18:22:51.043Z,0.20
2023-01-04T18:27:55.277Z,0.28
2023-01-04T18:32:58.167Z,0.20
2023-01-04T18:38:01.024Z,0.30
2023-01-04T18:43:05.133Z,0.30
2023-01-04T18:48:08.023Z,0.20
2023-01-04T18:53:10.870Z,0.30
2023-01-04T18:58:14.937Z,0.20
2023-01-04T19:03:18.677Z,0.30
2023-01-04T19:08:21.603Z,0.20
2023-01-04T19:13:25.731Z,0.30
2023-01-04T19:18:29.393Z,0.35
2023-01-04T19:23:32.108Z,0.30
2023-01-04T19:28:36.348Z,0.25
2023-01-04T19:33:39.313Z,0.40
2023-01-04T19:38:42.484Z,0.20
2023-01-04T19:43:46.615Z,0.20
2023-01-04T19:48:49.341Z,0.30
2023-01-04T19:53:52.554Z,0.35
2023-01-04T19:58:56.866Z,0.20
2023-01-04T20:03:59.617Z,0.20
2023-01-04T20:09:02.496Z,0.13
2023-01-04T20:14:06.644Z,0.20
2023-01-04T20:19:09.702Z,0.20
2023-01-04T20:24:12.556Z,0.20
2023-01-04T20:29:16.640Z,0.30
2023-01-04T20:34:19.481Z,0.25
2023-01-04T20:39:22.531Z,0.20
2023-01-04T20:44:26.711Z,0.20
2023-01-04T20:49:29.480Z,0.40
2023-01-04T20:54:32.284Z,0.20
2023-01-04T20:59:36.397Z,0.22
2023-01-04T21:04:39.204Z,0.20
2023-01-04T21:09:42.004Z,0.30
2023-01-04T21:14:46.813Z,0.20
2023-01-04T21:19:49.508Z,0.20
2023-01-04T21:24:52.216Z,0.20
2023-01-04T21:29:56.300Z,0.40
2023-01-04T21:34:58.999Z,0.20
2023-01-04T21:40:01.735Z,0.20
2023-01-04T21:45:07.204Z,0.20
2023-01-04T21:50:16.593Z,0.20
2023-01-04T21:55:19.832Z,0.30
2023-01-04T22:00:24.285Z,0.20
2023-01-04T22:05:26.986Z,0.45
2023-01-04T22:10:29.835Z,0.45
2023-01-04T22:15:33.948Z,0.70
2023-01-04T22:20:36.671Z,0.47
2023-01-04T22:25:39.407Z,0.60
2023-01-04T22:30:43.511Z,0.60
2023-01-04T22:35:46.403Z,0.73
2023-01-04T22:40:49.223Z,1.02
2023-01-04T22:46:00.119Z,0.80
2023-01-04T22:51:06.684Z,1.13
2023-01-04T22:56:20.327Z,0.60
2023-01-04T23:01:27.404Z,1.23
2023-01-04T23:06:31.335Z,0.88
2023-01-04T23:11:35.511Z,0.80
2023-01-04T23:16:39.814Z,0.90
2023-01-04T23:21:43.123Z,0.95
2023-01-04T23:26:47.155Z,1.00
2023-01-04T23:31:51.317Z,0.60
2023-01-04T23:36:54.131Z,0.90
2023-01-04T23:41:57.002Z,0.88
2023-01-04T23:52:06.473Z,1.48
2023-01-04T23:57:09.205Z,0.98
